University Heights, Iowa
Current Conditions -  °F | °C
As of 7:01 PM on Saturday 22 Nov 2014 (Local Time) from KIOW Reporting Station
Overcast Overcast  
Wind Chill: 53°   Ceiling: 1600
Heat Index: 53°   Visibility: 10mi
Dew Point: 51°   Wind: 12mph
Humidity: 93%   Direction: 170°S
Pressure: 29.77"   Gusts: NA
Location:  41.5918°N, 91.6264°W
Report Text: KIOW 230101Z AUTO 17010KT 10SM OVC016 12/11 A2977 RMK AO2 T01170106
Loading
Personal Weather Stations






























Interactive Weather Map New forecast layout! Learn more

10-Day Weather Forecast

Advertisements
Track Severe Weather on mobile